Time;durP1;ratioP1;P1;durP2;ratioP2;P2;SDS_P1;SDS_P2;PMS_P1;PMS_P2;Temp;Humidity;BMP_temperature;BMP_pressure;BME280_temperature;BME280_humidity;BME280_pressure;Samples;Min_cycle;Max_cycle;Signal;HPM_P1;HPM_P2
2023/12/22 00:01:24;;;;;;;2.03;1.15;;;17.60;71.00;;;;;;6141446;23;20550;-85
2023/12/22 00:03:53;;;;;;;3.80;0.90;;;17.70;71.00;;;;;;6217445;23;20137;-85
2023/12/22 00:06:19;;;;;;;3.40;1.20;;;17.70;70.80;;;;;;6140704;23;20149;-86
2023/12/22 00:08:45;;;;;;;5.50;1.00;;;17.70;71.00;;;;;;6164723;23;20208;-85
2023/12/22 00:11:16;;;;;;;2.70;1.00;;;17.70;71.00;;;;;;6141235;23;20178;-85
2023/12/22 00:13:46;;;;;;;2.00;1.00;;;17.60;71.00;;;;;;6091900;23;20233;-87
2023/12/22 00:16:16;;;;;;;2.08;1.00;;;17.60;71.10;;;;;;6091765;23;20150;-85
2023/12/22 00:18:45;;;;;;;2.25;1.05;;;17.70;71.10;;;;;;6069660;23;20154;-86
2023/12/22 00:21:11;;;;;;;2.00;0.95;;;17.60;71.10;;;;;;6068548;23;20165;-86
2023/12/22 00:23:39;;;;;;;2.78;0.95;;;17.60;71.10;;;;;;6165106;23;20149;-86
2023/12/22 00:26:08;;;;;;;1.60;1.10;;;17.60;71.00;;;;;;6139884;23;20182;-87
2023/12/22 00:28:34;;;;;;;3.22;1.13;;;17.60;71.10;;;;;;6165086;23;20153;-85
2023/12/22 00:31:00;;;;;;;2.58;1.02;;;17.60;71.00;;;;;;6165285;23;20549;-88
2023/12/22 00:33:29;;;;;;;2.88;0.98;;;17.60;71.00;;;;;;6165552;23;20134;-85
2023/12/22 00:35:56;;;;;;;2.25;1.10;;;17.60;71.00;;;;;;6163663;23;20589;-86
2023/12/22 00:38:28;;;;;;;2.25;1.17;;;17.60;71.00;;;;;;6164122;23;20223;-85
2023/12/22 00:40:58;;;;;;;2.10;1.00;;;17.60;71.10;;;;;;6066842;23;20149;-86
2023/12/22 00:43:31;;;;;;;2.75;0.90;;;17.60;71.00;;;;;;6139817;23;20165;-85
2023/12/22 00:46:06;;;;;;;2.70;0.80;;;17.60;71.10;;;;;;6172360;23;20209;-87
2023/12/22 00:48:39;;;;;;;4.28;1.45;;;17.50;71.00;;;;;;6091636;23;20216;-85
2023/12/22 00:51:10;;;;;;;2.55;1.15;;;17.60;70.90;;;;;;6090911;23;20182;-86
2023/12/22 00:53:36;;;;;;;1.75;0.90;;;17.60;71.00;;;;;;6114874;23;20200;-85
2023/12/22 00:56:03;;;;;;;1.88;0.98;;;17.60;70.90;;;;;;6212862;23;20126;-88
2023/12/22 00:58:31;;;;;;;4.35;0.77;;;17.50;70.90;;;;;;6189623;23;20139;-88
2023/12/22 01:00:56;;;;;;;1.95;1.00;;;17.50;70.90;;;;;;6114232;23;20166;-86
2023/12/22 01:03:25;;;;;;;1.30;0.85;;;17.50;70.70;;;;;;6164134;23;20766;-88
2023/12/22 01:05:53;;;;;;;2.00;1.02;;;17.60;70.60;;;;;;6089737;23;20154;-88
2023/12/22 01:08:20;;;;;;;2.08;1.27;;;17.60;70.60;;;;;;6139635;23;20158;-87
2023/12/22 01:10:51;;;;;;;3.72;1.38;;;17.60;70.70;;;;;;6215991;23;20126;-87
2023/12/22 01:13:22;;;;;;;2.42;0.95;;;17.50;70.70;;;;;;6164186;23;20162;-87
2023/12/22 01:15:51;;;;;;;1.67;0.85;;;17.50;70.90;;;;;;6115017;23;20597;-86
2023/12/22 01:18:20;;;;;;;2.67;0.85;;;17.50;70.90;;;;;;6088664;23;20213;-86
2023/12/22 01:20:49;;;;;;;3.20;0.95;;;17.60;70.80;;;;;;6113245;23;20150;-83
2023/12/22 01:23:20;;;;;;;3.22;1.25;;;17.50;70.70;;;;;;6139920;23;20150;-86
2023/12/22 01:25:52;;;;;;;1.33;0.85;;;17.60;70.60;;;;;;6067005;23;20524;-85
2023/12/22 01:28:20;;;;;;;1.85;0.93;;;17.50;70.70;;;;;;6114818;23;20157;-84
2023/12/22 01:30:48;;;;;;;1.45;0.88;;;17.50;70.70;;;;;;6091109;23;20178;-84
2023/12/22 01:33:16;;;;;;;1.95;0.95;;;17.50;70.50;;;;;;6138920;23;20597;-84
2023/12/22 01:35:44;;;;;;;3.10;1.00;;;17.60;70.70;;;;;;6139269;23;20174;-86
2023/12/22 01:38:11;;;;;;;1.75;1.10;;;17.50;70.70;;;;;;6113236;23;20176;-84
2023/12/22 01:40:46;;;;;;;2.10;1.05;;;17.50;70.60;;;;;;6188797;23;20144;-85
2023/12/22 01:43:13;;;;;;;4.35;1.02;;;17.50;70.70;;;;;;6113820;23;20164;-87
2023/12/22 01:45:44;;;;;;;2.05;1.15;;;17.60;70.60;;;;;;6163348;23;20189;-84
2023/12/22 01:48:16;;;;;;;1.15;0.88;;;17.50;70.50;;;;;;6115078;23;20161;-84
2023/12/22 01:50:44;;;;;;;2.42;1.00;;;17.60;70.20;;;;;;6067111;23;20470;-87
2023/12/22 01:53:12;;;;;;;1.73;1.00;;;17.60;70.30;;;;;;6189158;23;20142;-85
2023/12/22 01:55:42;;;;;;;1.50;0.93;;;17.50;70.20;;;;;;6114867;23;20153;-84
2023/12/22 01:58:12;;;;;;;2.28;1.33;;;17.50;70.30;;;;;;6139232;23;20150;-85
2023/12/22 02:00:40;;;;;;;1.38;0.80;;;17.50;70.40;;;;;;6139615;23;20598;-85
2023/12/22 02:23:23;;;;;;;2.90;0.90;;;17.50;70.30;;;;;;6187727;23;20178;-84
2023/12/22 02:25:52;;;;;;;2.03;0.95;;;17.50;70.20;;;;;;6135234;23;20601;-85
2023/12/22 02:28:25;;;;;;;1.67;0.60;;;17.40;70.10;;;;;;6135414;23;20158;-86
2023/12/22 02:41:13;;;;;;;2.30;1.00;;;17.50;70.20;;;;;;6215841;22;20211;-84
2023/12/22 02:43:43;;;;;;;2.50;0.98;;;17.40;70.20;;;;;;6116908;23;20154;-84
2023/12/22 02:46:16;;;;;;;1.67;0.90;;;17.50;70.30;;;;;;6141191;23;20154;-84
2023/12/22 02:48:47;;;;;;;1.88;1.08;;;17.40;70.40;;;;;;6142373;23;20200;-85
2023/12/22 02:51:13;;;;;;;2.03;0.90;;;17.40;70.30;;;;;;6116943;23;20192;-83
2023/12/22 03:19:27;;;;;;;1.48;1.00;;;17.40;70.30;;;;;;6211207;22;20212;-87
2023/12/22 03:21:53;;;;;;;2.33;1.05;;;17.40;70.50;;;;;;6116344;23;20157;-86
2023/12/22 03:24:20;;;;;;;1.75;0.90;;;17.40;70.60;;;;;;6190581;23;20145;-87
2023/12/22 03:34:37;;;;;;;2.13;0.82;;;17.30;70.60;;;;;;6213256;22;20209;-86
2023/12/22 03:37:03;;;;;;;1.42;0.82;;;17.30;70.70;;;;;;6165294;23;20208;-85
2023/12/22 03:39:29;;;;;;;1.20;0.77;;;17.30;70.50;;;;;;6190278;23;20146;-87
2023/12/22 03:41:59;;;;;;;2.67;0.90;;;17.40;70.50;;;;;;6190281;23;20142;-87
2023/12/22 03:44:31;;;;;;;1.65;0.90;;;17.30;70.40;;;;;;6116146;23;20161;-86
2023/12/22 03:46:58;;;;;;;0.93;0.73;;;17.30;70.40;;;;;;6115997;23;20155;-84
2023/12/22 03:49:23;;;;;;;2.90;0.98;;;17.30;70.50;;;;;;6217037;23;21010;-87
2023/12/22 03:51:53;;;;;;;1.77;0.95;;;17.40;70.50;;;;;;6165447;23;20161;-86
2023/12/22 03:54:23;;;;;;;1.23;0.75;;;17.30;70.30;;;;;;6091755;23;20153;-86
2023/12/22 03:56:49;;;;;;;1.67;1.17;;;17.30;70.50;;;;;;6115983;23;20578;-85
2023/12/22 03:59:18;;;;;;;1.55;0.93;;;17.30;70.40;;;;;;6164978;23;20221;-84
2023/12/22 04:01:55;;;;;;;2.13;1.00;;;17.30;70.10;;;;;;6141566;23;20142;-85
2023/12/22 04:04:29;;;;;;;1.40;0.80;;;17.40;70.40;;;;;;6115280;23;20181;-86
2023/12/22 04:06:59;;;;;;;1.70;0.82;;;17.40;70.10;;;;;;6093274;23;20150;-85
2023/12/22 04:09:25;;;;;;;2.95;1.00;;;17.30;70.30;;;;;;6164072;23;20150;-84
2023/12/22 04:11:50;;;;;;;2.00;1.00;;;17.40;70.40;;;;;;6138900;23;20166;-86
2023/12/22 04:14:18;;;;;;;2.13;1.00;;;17.30;70.40;;;;;;6139876;23;20150;-85
2023/12/22 04:16:44;;;;;;;1.05;0.75;;;17.30;70.10;;;;;;6164286;23;20131;-84
2023/12/22 04:19:10;;;;;;;1.92;0.90;;;17.40;70.30;;;;;;6189405;23;20192;-84
2023/12/22 04:21:39;;;;;;;2.05;1.00;;;17.30;70.30;;;;;;6164620;23;20539;-83
2023/12/22 04:24:10;;;;;;;1.45;0.77;;;17.40;70.50;;;;;;6138946;23;20130;-85
2023/12/22 04:26:36;;;;;;;2.90;1.00;;;17.30;70.40;;;;;;6115554;23;20157;-85
2023/12/22 04:29:02;;;;;;;2.10;0.95;;;17.30;70.10;;;;;;6165421;23;20204;-84
2023/12/22 04:31:30;;;;;;;1.55;0.70;;;17.30;70.40;;;;;;6189403;23;20166;-86
2023/12/22 04:33:57;;;;;;;1.98;1.20;;;17.30;70.40;;;;;;6139853;23;20225;-87
2023/12/22 04:36:30;;;;;;;2.33;1.00;;;17.20;70.50;;;;;;6139948;23;20149;-86
2023/12/22 04:44:22;;;;;;;1.98;1.00;;;17.30;70.40;;;;;;6191371;22;20177;-88
2023/12/22 04:59:46;;;;;;;1.92;0.85;;;17.30;70.00;;;;;;6219618;22;20208;-85
2023/12/22 05:02:18;;;;;;;2.22;0.85;;;17.30;70.10;;;;;;6169273;23;20145;-86
2023/12/22 05:04:50;;;;;;;1.48;0.90;;;17.30;70.30;;;;;;6070944;23;20537;-85
2023/12/22 05:07:24;;;;;;;1.65;0.75;;;17.20;70.10;;;;;;6093198;23;20605;-84
2023/12/22 05:43:47;;;;;;;1.70;0.80;;;17.20;70.10;;;;;;6209186;22;20257;-86
2023/12/22 05:46:15;;;;;;;1.42;1.00;;;17.30;70.10;;;;;;6069161;23;20581;-87
2023/12/22 05:48:45;;;;;;;0.95;0.70;;;17.20;70.30;;;;;;6091208;23;20159;-85
2023/12/22 05:51:14;;;;;;;1.77;0.70;;;17.30;70.10;;;;;;6091591;23;20182;-85
2023/12/22 05:53:46;;;;;;;2.58;0.95;;;17.30;70.00;;;;;;6070310;23;20173;-86
2023/12/22 05:56:22;;;;;;;1.75;0.80;;;17.20;70.00;;;;;;6046246;23;20208;-87
2023/12/22 05:58:49;;;;;;;2.25;0.80;;;17.30;70.00;;;;;;6143586;23;20173;-87
2023/12/22 06:01:18;;;;;;;2.25;0.93;;;17.30;70.00;;;;;;6148986;23;20461;-85
2023/12/22 06:03:45;;;;;;;1.48;0.90;;;17.30;70.10;;;;;;6199088;23;20133;-85
2023/12/22 06:06:13;;;;;;;1.70;1.15;;;17.30;70.10;;;;;;6224730;23;20131;-83
2023/12/22 06:08:40;;;;;;;1.25;0.73;;;17.30;70.10;;;;;;6148965;23;20180;-83
2023/12/22 06:11:06;;;;;;;1.88;0.90;;;17.20;70.00;;;;;;6223928;23;20513;-86
2023/12/22 06:13:34;;;;;;;3.40;0.98;;;17.30;70.00;;;;;;6199154;23;20150;-83
2023/12/22 06:16:00;;;;;;;1.63;0.77;;;17.30;70.00;;;;;;6150358;23;20157;-83
2023/12/22 06:18:27;;;;;;;3.33;0.90;;;17.20;69.90;;;;;;6149567;23;20143;-84
2023/12/22 06:20:53;;;;;;;1.38;0.75;;;17.20;69.90;;;;;;6173364;23;20170;-86
2023/12/22 06:23:19;;;;;;;1.70;0.95;;;17.20;70.00;;;;;;6197396;23;20233;-84
2023/12/22 06:25:46;;;;;;;1.00;0.80;;;17.30;70.10;;;;;;6219547;23;20205;-84
2023/12/22 06:28:24;;;;;;;1.50;0.80;;;17.30;69.80;;;;;;6190321;23;20554;-84
2023/12/22 06:30:59;;;;;;;2.65;0.80;;;17.20;69.90;;;;;;6069469;23;20160;-84
2023/12/22 06:33:36;;;;;;;1.80;1.00;;;17.30;69.90;;;;;;6115904;23;20157;-85
2023/12/22 06:36:02;;;;;;;1.92;0.85;;;17.30;69.80;;;;;;6068496;23;20149;-84
2023/12/22 06:38:34;;;;;;;1.02;0.77;;;17.20;69.90;;;;;;6164794;23;20165;-85
2023/12/22 06:41:07;;;;;;;1.98;0.70;;;17.20;69.80;;;;;;6092357;23;20166;-86
2023/12/22 06:43:39;;;;;;;1.02;0.60;;;17.20;69.90;;;;;;6092786;23;20205;-84
2023/12/22 06:46:20;;;;;;;1.20;0.80;;;17.20;69.90;;;;;;6069347;23;20590;-84
2023/12/22 06:48:50;;;;;;;2.85;1.00;;;17.20;70.10;;;;;;6093510;23;20154;-85
2023/12/22 06:51:24;;;;;;;3.38;1.08;;;17.30;69.90;;;;;;6140388;23;20681;-86
2023/12/22 06:53:56;;;;;;;2.33;0.80;;;17.20;69.60;;;;;;6094039;23;20172;-84
2023/12/22 06:56:25;;;;;;;1.67;0.85;;;17.20;69.40;;;;;;6069047;23;20153;-85
2023/12/22 06:58:52;;;;;;;1.48;0.73;;;17.20;69.80;;;;;;6156037;23;20205;-84
2023/12/22 07:01:21;;;;;;;1.63;0.60;;;17.20;69.90;;;;;;6107107;23;20156;-85
2023/12/22 07:03:48;;;;;;;2.47;1.20;;;17.30;69.60;;;;;;6107575;23;20144;-84
2023/12/22 07:06:16;;;;;;;1.90;0.90;;;17.30;69.50;;;;;;6131505;23;20254;-84
2023/12/22 07:11:50;;;;;;;1.50;0.70;;;17.20;69.80;;;;;;6210701;22;20201;-86
2023/12/22 07:14:16;;;;;;;1.35;0.77;;;17.20;69.80;;;;;;6141612;23;20145;-85
2023/12/22 07:16:43;;;;;;;1.23;0.70;;;17.20;69.40;;;;;;6165959;23;20154;-85
2023/12/22 07:19:08;;;;;;;1.33;0.80;;;17.20;69.60;;;;;;6191267;23;20553;-86
2023/12/22 07:21:35;;;;;;;1.48;0.85;;;17.30;69.10;;;;;;6190543;23;20165;-85
2023/12/22 07:24:01;;;;;;;1.10;0.73;;;17.30;69.40;;;;;;6217540;23;20134;-85
2023/12/22 07:26:28;;;;;;;1.58;0.82;;;17.30;69.10;;;;;;6190859;23;20169;-84
2023/12/22 07:28:54;;;;;;;1.15;0.80;;;17.30;68.60;;;;;;6189780;23;20138;-85
2023/12/22 07:32:11;;;;;;;1.65;0.90;;;17.30;68.60;;;;;;6164055;23;20708;-85
2023/12/22 07:35:31;;;;;;;1.48;0.82;;;17.30;68.30;;;;;;6153578;23;20155;-85
2023/12/22 07:38:47;;;;;;;1.60;0.80;;;17.40;68.20;;;;;;6095046;23;20188;-85
2023/12/22 07:41:13;;;;;;;1.05;0.73;;;17.30;68.90;;;;;;6095302;23;20157;-85
2023/12/22 07:43:41;;;;;;;1.65;0.70;;;17.30;68.80;;;;;;6095954;23;20156;-86
2023/12/22 07:46:09;;;;;;;1.30;0.80;;;17.30;68.50;;;;;;6072861;23;20556;-86
2023/12/22 07:48:35;;;;;;;1.10;0.68;;;17.40;68.60;;;;;;6070874;23;20156;-84
2023/12/22 07:51:03;;;;;;;2.03;0.80;;;17.30;68.10;;;;;;6094507;23;20168;-85
2023/12/22 07:53:29;;;;;;;1.25;0.70;;;17.30;68.20;;;;;;6048315;23;20576;-85
2023/12/22 07:56:01;;;;;;;1.88;0.90;;;17.40;68.40;;;;;;6070976;23;20599;-85
2023/12/22 07:58:40;;;;;;;2.00;0.70;;;17.40;68.30;;;;;;6046301;23;20164;-85
2023/12/22 08:01:18;;;;;;;1.05;0.65;;;17.40;68.10;;;;;;6005682;23;20192;-84
2023/12/22 08:03:56;;;;;;;1.08;0.80;;;17.30;68.30;;;;;;6024962;23;20149;-86
2023/12/22 08:06:34;;;;;;;0.80;0.65;;;17.30;67.90;;;;;;6094836;23;20609;-84
2023/12/22 08:09:12;;;;;;;1.25;0.70;;;17.40;68.60;;;;;;6067867;23;20153;-84
2023/12/22 08:11:52;;;;;;;0.68;0.60;;;17.40;68.10;;;;;;6070379;23;20229;-85
2023/12/22 08:14:31;;;;;;;1.33;0.70;;;17.40;68.60;;;;;;6096867;23;20280;-86
2023/12/22 08:17:09;;;;;;;0.80;0.75;;;17.40;67.30;;;;;;6095958;23;20536;-85
2023/12/22 08:19:49;;;;;;;1.45;0.70;;;17.40;68.00;;;;;;6094260;23;20160;-85
2023/12/22 08:22:26;;;;;;;1.00;0.82;;;17.40;67.60;;;;;;6096347;23;20154;-84
2023/12/22 08:25:04;;;;;;;1.08;0.80;;;17.40;68.30;;;;;;6217928;22;20636;-85
2023/12/22 08:27:42;;;;;;;1.25;0.80;;;17.40;68.90;;;;;;6094444;23;20592;-84
2023/12/22 08:30:20;;;;;;;1.52;0.77;;;17.30;68.50;;;;;;6049416;23;20641;-85
2023/12/22 08:32:57;;;;;;;1.25;0.80;;;17.30;68.70;;;;;;6094558;23;20260;-84
2023/12/22 08:35:23;;;;;;;0.75;0.55;;;17.30;68.50;;;;;;6091827;23;20157;-85
2023/12/22 08:37:49;;;;;;;1.90;0.68;;;17.30;68.30;;;;;;6189815;23;20188;-85
2023/12/22 08:40:15;;;;;;;1.63;0.82;;;17.30;67.60;;;;;;6190062;23;20146;-86
2023/12/22 08:45:06;;;;;;;1.33;0.90;;;17.30;68.00;;;;;;6172267;23;20210;-85
2023/12/22 08:47:32;;;;;;;0.90;0.70;;;17.30;68.30;;;;;;6136530;23;20154;-84
2023/12/22 08:49:58;;;;;;;0.63;0.52;;;17.40;68.10;;;;;;6161231;23;20605;-86
2023/12/22 08:52:24;;;;;;;1.10;0.80;;;17.40;66.70;;;;;;6158560;23;20237;-85
2023/12/22 08:54:49;;;;;;;0.80;0.70;;;17.50;67.80;;;;;;6134610;23;20478;-85
2023/12/22 08:57:15;;;;;;;1.35;0.77;;;17.50;67.30;;;;;;6159196;23;20201;-85
2023/12/22 08:59:41;;;;;;;2.30;0.77;;;17.50;67.70;;;;;;6160778;23;20154;-85
2023/12/22 09:02:07;;;;;;;1.15;0.70;;;17.40;67.50;;;;;;6185551;23;20186;-85
2023/12/22 09:04:32;;;;;;;1.17;0.77;;;17.50;66.80;;;;;;6135007;23;20139;-85
2023/12/22 09:06:58;;;;;;;1.70;1.05;;;17.50;67.10;;;;;;6185940;23;20502;-85
2023/12/22 09:09:26;;;;;;;1.48;0.93;;;17.50;67.20;;;;;;6160667;23;20535;-86
2023/12/22 09:11:52;;;;;;;1.40;0.70;;;17.50;67.60;;;;;;6162244;23;20557;-85
2023/12/22 09:14:18;;;;;;;0.88;0.47;;;17.40;67.20;;;;;;6135490;23;20562;-85
2023/12/22 09:16:47;;;;;;;1.83;0.73;;;17.40;67.80;;;;;;6184847;23;20150;-86
2023/12/22 09:19:12;;;;;;;1.25;0.82;;;17.50;67.40;;;;;;6161485;23;20143;-86
2023/12/22 09:21:44;;;;;;;1.23;0.70;;;17.40;67.10;;;;;;6186243;23;20535;-84
2023/12/22 09:24:14;;;;;;;1.17;0.77;;;17.50;67.50;;;;;;6185198;23;20131;-85
2023/12/22 09:26:47;;;;;;;1.38;0.73;;;17.50;67.40;;;;;;6129914;23;20155;-85
2023/12/22 09:29:14;;;;;;;1.02;0.70;;;17.50;67.80;;;;;;6105093;23;20619;-84
2023/12/22 09:31:41;;;;;;;1.35;0.70;;;17.50;67.60;;;;;;6129947;23;20175;-85
2023/12/22 09:34:07;;;;;;;0.70;0.52;;;17.50;67.50;;;;;;6128306;23;20597;-85
2023/12/22 09:36:32;;;;;;;1.23;0.80;;;17.50;67.50;;;;;;6152653;23;20186;-84
2023/12/22 09:38:58;;;;;;;2.38;0.90;;;17.60;67.30;;;;;;6151885;23;20543;-84
2023/12/22 09:41:24;;;;;;;1.30;0.90;;;17.50;67.50;;;;;;6150904;23;20551;-84
2023/12/22 09:43:52;;;;;;;1.38;0.70;;;17.50;67.20;;;;;;6151989;23;20159;-85
2023/12/22 09:46:33;;;;;;;1.50;0.80;;;17.50;66.90;;;;;;6152504;23;20718;-83
2023/12/22 09:49:13;;;;;;;1.38;0.70;;;17.50;66.90;;;;;;6103246;23;20151;-85
2023/12/22 09:51:52;;;;;;;1.45;0.70;;;17.50;67.30;;;;;;6103598;23;20186;-84
2023/12/22 09:54:32;;;;;;;1.98;0.95;;;17.50;67.10;;;;;;6079846;23;20194;-84
2023/12/22 09:57:10;;;;;;;1.42;0.82;;;17.50;67.50;;;;;;6108700;23;20612;-84
2023/12/22 09:59:48;;;;;;;0.93;0.60;;;17.50;66.90;;;;;;6109957;23;20161;-85
2023/12/22 10:02:27;;;;;;;2.17;0.80;;;17.50;67.50;;;;;;6134609;23;20480;-84
2023/12/22 10:05:24;;;;;;;1.10;0.70;;;17.60;67.90;;;;;;6112391;23;20154;-85
2023/12/22 10:08:06;;;;;;;1.67;1.05;;;17.50;67.30;;;;;;6137463;23;20197;-84
2023/12/22 10:10:43;;;;;;;1.05;0.60;;;17.60;67.20;;;;;;6113998;23;20151;-84
2023/12/22 10:13:20;;;;;;;1.30;0.70;;;17.60;66.40;;;;;;6115378;23;20269;-85
2023/12/22 10:15:54;;;;;;;1.35;0.82;;;17.60;66.90;;;;;;6115696;23;20388;-85
2023/12/22 10:18:30;;;;;;;2.25;0.93;;;17.70;66.10;;;;;;6114626;23;20150;-85
2023/12/22 10:21:02;;;;;;;2.00;0.85;;;17.60;68.00;;;;;;6113835;23;20158;-85
2023/12/22 10:23:32;;;;;;;1.75;0.80;;;17.60;66.80;;;;;;6115377;23;20163;-85
2023/12/22 10:26:05;;;;;;;0.73;0.60;;;17.70;66.60;;;;;;6113347;23;20485;-84
2023/12/22 10:28:31;;;;;;;1.77;0.70;;;17.70;66.50;;;;;;6088659;23;20173;-85
2023/12/22 10:31:06;;;;;;;1.50;0.73;;;17.60;66.70;;;;;;6136989;23;20138;-85
2023/12/22 10:33:34;;;;;;;1.17;0.63;;;17.60;67.20;;;;;;6088742;23;20150;-87
2023/12/22 10:36:05;;;;;;;1.20;0.93;;;17.60;65.80;;;;;;6079277;23;20152;-85
2023/12/22 10:38:34;;;;;;;1.05;0.70;;;17.60;66.60;;;;;;6058945;23;20166;-86
2023/12/22 10:41:05;;;;;;;1.50;0.70;;;17.70;66.10;;;;;;6112479;23;20174;-84
2023/12/22 10:43:36;;;;;;;1.15;0.75;;;17.70;66.00;;;;;;6063654;23;20826;-84
2023/12/22 10:46:08;;;;;;;1.00;0.73;;;17.70;65.60;;;;;;6066037;23;20148;-83
2023/12/22 10:48:48;;;;;;;1.75;0.80;;;17.80;65.20;;;;;;6066885;23;20155;-85
2023/12/22 10:51:14;;;;;;;1.15;0.90;;;17.80;64.90;;;;;;6065394;23;20187;-84
2023/12/22 10:53:46;;;;;;;0.88;0.60;;;17.80;66.10;;;;;;6083831;23;20556;-84
2023/12/22 10:56:13;;;;;;;3.38;1.00;;;17.80;66.20;;;;;;6083761;23;20239;-84
2023/12/22 10:58:39;;;;;;;1.10;0.80;;;17.90;64.90;;;;;;6082305;23;20144;-84
2023/12/22 11:01:06;;;;;;;0.80;0.57;;;17.90;66.20;;;;;;6084429;23;20159;-86
2023/12/22 11:03:31;;;;;;;1.70;1.10;;;17.90;65.20;;;;;;6107114;23;20242;-86
2023/12/22 11:05:57;;;;;;;1.30;0.77;;;18.00;65.20;;;;;;6083520;23;20191;-85
2023/12/22 11:08:23;;;;;;;0.85;0.70;;;17.90;64.90;;;;;;6135680;23;20595;-85
2023/12/22 11:10:51;;;;;;;0.80;0.68;;;18.00;64.70;;;;;;6088268;23;20147;-85
2023/12/22 11:13:19;;;;;;;2.40;0.77;;;18.00;64.60;;;;;;6084418;23;20190;-84
2023/12/22 11:15:45;;;;;;;1.00;0.70;;;18.00;65.40;;;;;;6109870;23;20135;-85
2023/12/22 11:18:11;;;;;;;1.70;0.73;;;17.90;65.30;;;;;;6158021;23;20231;-84
2023/12/22 11:20:44;;;;;;;1.10;0.80;;;17.90;64.60;;;;;;6110271;23;20151;-85
2023/12/22 11:23:10;;;;;;;1.80;0.75;;;17.90;65.90;;;;;;6110508;23;20143;-85
2023/12/22 11:25:36;;;;;;;2.38;0.73;;;17.80;66.20;;;;;;6087966;23;20147;-85
2023/12/22 11:28:02;;;;;;;0.90;0.70;;;17.80;65.40;;;;;;6133393;23;20136;-85
2023/12/22 11:30:27;;;;;;;1.17;0.88;;;17.90;65.20;;;;;;6111398;23;20132;-86
2023/12/22 11:32:55;;;;;;;2.72;0.90;;;17.90;63.90;;;;;;6134177;23;20179;-86
2023/12/22 11:35:24;;;;;;;1.02;0.65;;;17.90;65.80;;;;;;6087564;23;20147;-86
2023/12/22 11:37:51;;;;;;;0.90;0.70;;;17.90;64.40;;;;;;6063114;23;20157;-87
2023/12/22 11:40:17;;;;;;;1.00;0.73;;;18.00;64.30;;;;;;6136120;23;20551;-85
2023/12/22 11:42:45;;;;;;;1.73;0.70;;;17.90;65.40;;;;;;6112052;23;20136;-86
2023/12/22 11:45:12;;;;;;;1.25;0.70;;;17.90;66.10;;;;;;6111835;23;20132;-84
2023/12/22 11:47:38;;;;;;;1.20;0.80;;;18.00;65.80;;;;;;6111755;23;20567;-85
2023/12/22 11:50:08;;;;;;;2.25;0.80;;;17.90;65.80;;;;;;6135170;23;20124;-85
2023/12/22 11:52:34;;;;;;;1.20;0.75;;;17.90;65.40;;;;;;6113166;23;20194;-86
2023/12/22 11:54:59;;;;;;;2.67;0.85;;;17.90;64.80;;;;;;6136123;23;20305;-87
2023/12/22 11:57:37;;;;;;;1.52;0.75;;;17.90;65.20;;;;;;6090734;23;20143;-86
2023/12/22 12:00:08;;;;;;;1.17;0.80;;;18.00;65.50;;;;;;6044804;23;20158;-85
2023/12/22 12:02:39;;;;;;;1.45;0.93;;;17.90;65.10;;;;;;6113942;23;20147;-83
2023/12/22 12:05:07;;;;;;;0.70;0.50;;;17.90;64.70;;;;;;6086675;23;20170;-86
2023/12/22 12:08:06;;;;;;;0.90;0.70;;;17.90;64.50;;;;;;6166842;23;20182;-86
2023/12/22 12:10:52;;;;;;;1.77;0.90;;;17.90;64.80;;;;;;6144936;23;20185;-87
2023/12/22 12:13:33;;;;;;;4.55;0.57;;;17.90;65.30;;;;;;6144994;23;20167;-86
2023/12/22 12:16:12;;;;;;;1.38;0.90;;;18.00;65.50;;;;;;6124370;23;20150;-86
2023/12/22 12:18:41;;;;;;;1.20;0.77;;;18.00;64.30;;;;;;6121098;23;20150;-88
2023/12/22 12:21:15;;;;;;;0.90;0.73;;;18.00;64.50;;;;;;6120582;23;20652;-84
2023/12/22 12:23:41;;;;;;;1.65;1.08;;;18.00;64.90;;;;;;6115270;23;20461;-83
2023/12/22 12:26:07;;;;;;;0.98;0.63;;;18.00;64.90;;;;;;6116783;23;20155;-87
2023/12/22 12:28:40;;;;;;;1.85;1.00;;;18.00;65.20;;;;;;6143227;23;20150;-85
2023/12/22 12:31:12;;;;;;;1.00;0.68;;;18.00;65.00;;;;;;6119935;23;20182;-84
2023/12/22 12:33:43;;;;;;;1.25;0.70;;;18.00;65.20;;;;;;6094286;23;20158;-87
2023/12/22 12:36:14;;;;;;;0.68;0.63;;;18.00;66.00;;;;;;6090418;23;20154;-86
2023/12/22 12:38:54;;;;;;;0.82;0.70;;;18.00;66.00;;;;;;6113394;23;20147;-87
2023/12/22 12:41:30;;;;;;;1.58;0.88;;;18.00;65.10;;;;;;6065004;23;20155;-84
2023/12/22 12:44:02;;;;;;;1.73;0.90;;;18.00;65.60;;;;;;6066759;23;20208;-86
2023/12/22 12:46:43;;;;;;;1.00;0.73;;;18.10;64.30;;;;;;6113016;23;20702;-86
2023/12/22 12:49:15;;;;;;;1.33;0.80;;;18.00;63.70;;;;;;6065777;23;20146;-85
2023/12/22 12:51:47;;;;;;;2.08;0.90;;;18.00;64.10;;;;;;6088102;23;20261;-85
2023/12/22 12:54:18;;;;;;;0.85;0.70;;;18.10;64.00;;;;;;6088802;23;20159;-89
2023/12/22 12:56:49;;;;;;;0.75;0.60;;;18.10;64.60;;;;;;6088268;23;20177;-87
2023/12/22 12:59:20;;;;;;;0.82;0.52;;;18.00;64.00;;;;;;6113210;23;20161;-86
2023/12/22 13:01:52;;;;;;;1.92;0.60;;;18.00;64.90;;;;;;6112570;23;20165;-87
2023/12/22 13:04:22;;;;;;;2.05;0.65;;;18.10;63.80;;;;;;6091811;23;20277;-84
2023/12/22 13:06:53;;;;;;;1.00;0.63;;;18.00;64.60;;;;;;6087656;23;20272;-84
2023/12/22 13:09:30;;;;;;;1.48;0.60;;;18.00;65.10;;;;;;6111846;23;20165;-87
2023/12/22 13:12:04;;;;;;;1.20;0.60;;;18.00;65.00;;;;;;6093595;23;20198;-85
2023/12/22 13:14:34;;;;;;;1.48;0.77;;;18.00;64.90;;;;;;6091151;23;20182;-86
2023/12/22 13:17:05;;;;;;;1.23;0.90;;;18.00;63.80;;;;;;6090933;23;20237;-85
2023/12/22 13:19:31;;;;;;;1.63;0.90;;;18.10;64.10;;;;;;6114238;23;20185;-86
2023/12/22 13:22:11;;;;;;;1.52;0.85;;;18.00;64.80;;;;;;6164780;23;20155;-86
2023/12/22 13:24:38;;;;;;;2.53;0.90;;;18.00;65.20;;;;;;6090864;23;20608;-86
2023/12/22 13:27:06;;;;;;;1.00;0.75;;;18.00;65.70;;;;;;6139955;23;20150;-86
2023/12/22 13:29:44;;;;;;;2.50;0.60;;;18.00;63.40;;;;;;6115197;23;20213;-84
2023/12/22 13:32:16;;;;;;;3.33;0.75;;;18.00;65.60;;;;;;6140969;23;20181;-87
2023/12/22 13:34:53;;;;;;;1.13;0.80;;;18.00;64.30;;;;;;6139984;23;20166;-86
2023/12/22 13:37:19;;;;;;;2.83;0.60;;;18.00;64.30;;;;;;6113707;23;20182;-86
2023/12/22 13:40:11;;;;;;;1.40;0.90;;;18.10;63.90;;;;;;6138589;23;20134;-85
2023/12/22 13:43:02;;;;;;;1.13;0.57;;;18.20;64.20;;;;;;6102105;23;20177;-88
2023/12/22 13:45:34;;;;;;;1.27;0.70;;;18.10;63.70;;;;;;6057482;23;20160;-85
2023/12/22 13:48:03;;;;;;;1.10;0.70;;;18.00;63.80;;;;;;6102474;23;20190;-85
2023/12/22 13:50:33;;;;;;;0.50;0.50;;;18.10;64.50;;;;;;6101839;23;20156;-86
2023/12/22 13:53:10;;;;;;;1.45;0.70;;;18.10;64.00;;;;;;6125872;23;20631;-86
2023/12/22 13:55:40;;;;;;;2.03;0.65;;;18.10;65.20;;;;;;6126514;23;20661;-87
2023/12/22 13:58:09;;;;;;;2.15;0.80;;;18.00;65.10;;;;;;6125303;23;20162;-86
2023/12/22 14:00:34;;;;;;;1.45;0.75;;;18.10;64.30;;;;;;6126579;23;20144;-88
2023/12/22 14:03:01;;;;;;;2.92;0.93;;;18.00;63.50;;;;;;6078433;23;20155;-86
2023/12/22 14:05:28;;;;;;;1.25;0.70;;;18.10;63.20;;;;;;6073257;23;20152;-86
2023/12/22 14:07:55;;;;;;;0.73;0.57;;;18.20;64.00;;;;;;6046888;23;20215;-85
2023/12/22 14:10:24;;;;;;;1.35;0.82;;;18.10;64.30;;;;;;6076620;23;20145;-87
2023/12/22 14:12:56;;;;;;;1.08;0.73;;;18.10;63.60;;;;;;6073265;23;20177;-86
2023/12/22 14:15:28;;;;;;;1.63;0.73;;;18.10;63.30;;;;;;6074604;23;20242;-85
2023/12/22 14:17:55;;;;;;;1.35;0.50;;;18.20;64.10;;;;;;6074441;23;20497;-87
2023/12/22 14:20:26;;;;;;;0.90;0.77;;;18.10;63.70;;;;;;6139059;23;20158;-88
2023/12/22 14:22:52;;;;;;;0.95;0.70;;;18.10;64.10;;;;;;6111278;23;20147;-88
2023/12/22 14:25:18;;;;;;;1.50;0.60;;;18.10;63.20;;;;;;6109414;23;20488;-85
2023/12/22 14:27:46;;;;;;;2.65;0.88;;;18.10;64.00;;;;;;6110562;23;20189;-85
2023/12/22 14:30:20;;;;;;;0.70;0.70;;;18.10;63.40;;;;;;6058074;23;20225;-85
2023/12/22 14:32:48;;;;;;;0.77;0.57;;;18.10;63.30;;;;;;6217503;23;20229;-85
2023/12/22 14:35:14;;;;;;;0.80;0.60;;;18.10;63.40;;;;;;6117301;23;20493;-86
2023/12/22 14:37:39;;;;;;;1.55;0.60;;;18.20;64.10;;;;;;6143244;23;20480;-85
2023/12/22 14:40:08;;;;;;;1.02;0.60;;;18.10;63.00;;;;;;6191342;23;20285;-87
2023/12/22 14:45:01;;;;;;;0.90;0.68;;;18.10;63.90;;;;;;6192333;23;20584;-85
2023/12/22 14:47:27;;;;;;;1.88;0.70;;;18.10;63.30;;;;;;6169026;23;20573;-86
2023/12/22 14:49:54;;;;;;;1.45;0.60;;;18.10;64.20;;;;;;6169091;23;20153;-86
2023/12/22 14:52:20;;;;;;;1.10;0.80;;;18.10;63.80;;;;;;6169467;23;20559;-84
2023/12/22 14:54:46;;;;;;;1.17;0.60;;;18.10;64.20;;;;;;6141848;23;20134;-88
2023/12/22 14:57:18;;;;;;;1.65;0.70;;;18.10;63.60;;;;;;6166442;23;20131;-85
2023/12/22 14:59:47;;;;;;;2.95;0.93;;;18.10;63.50;;;;;;6094660;23;20151;-87
2023/12/22 15:02:13;;;;;;;14.10;1.35;;;18.10;62.10;;;;;;6165901;23;20164;-85
2023/12/22 15:04:42;;;;;;;8.07;1.35;;;18.20;64.10;;;;;;6192537;23;20158;-84
2023/12/22 15:07:08;;;;;;;8.85;1.40;;;18.10;63.80;;;;;;6141698;23;20424;-86
2023/12/22 15:09:39;;;;;;;4.68;1.10;;;18.10;64.30;;;;;;6140209;23;20142;-85